Time;durP1;ratioP1;P1;durP2;ratioP2;P2;SDS_P1;SDS_P2;PMS_P1;PMS_P2;Temp;Humidity;BMP_temperature;BMP_pressure;BME280_temperature;BME280_humidity;BME280_pressure;Samples;Min_cycle;Max_cycle;Signal;HPM_P1;HPM_P2
2022/10/19 00:01:16;;;;;;;3.30;1.08;;;;;;;25.49;42.77;101436.31;5031867;28;20116;-57
2022/10/19 00:03:47;;;;;;;2.58;1.00;;;;;;;25.47;42.42;101424.94;5015409;28;20446;-56
2022/10/19 00:06:28;;;;;;;1.70;0.90;;;;;;;25.44;42.78;101427.53;5033237;28;20030;-57
2022/10/19 00:08:59;;;;;;;2.85;1.42;;;;;;;25.50;42.53;101431.97;5032910;28;20061;-57
2022/10/19 00:11:27;;;;;;;6.00;0.90;;;;;;;25.50;42.30;101432.84;5032947;28;20367;-57
2022/10/19 00:13:57;;;;;;;2.30;1.00;;;;;;;25.46;42.45;101420.56;5032650;28;20044;-56
2022/10/19 00:16:28;;;;;;;3.50;0.95;;;;;;;25.48;42.68;101426.72;5032636;28;20053;-57
2022/10/19 00:18:58;;;;;;;3.03;1.73;;;;;;;25.52;42.24;101425.00;5032758;28;20422;-57
2022/10/19 00:21:27;;;;;;;1.52;0.90;;;;;;;25.51;42.69;101420.59;5032415;28;20060;-54
2022/10/19 00:23:55;;;;;;;2.08;1.00;;;;;;;25.45;42.50;101417.03;5015070;28;20033;-56
2022/10/19 00:26:25;;;;;;;1.90;1.10;;;;;;;25.43;42.62;101402.13;5032891;28;20026;-57
2022/10/19 00:28:55;;;;;;;1.30;0.80;;;;;;;25.47;42.35;101398.69;5032671;28;20029;-58
2022/10/19 00:31:24;;;;;;;1.00;0.80;;;;;;;25.47;42.59;101390.81;5032672;28;20088;-58
2022/10/19 00:33:52;;;;;;;2.00;1.00;;;;;;;25.47;42.51;101380.28;5032504;28;20505;-57
2022/10/19 00:36:24;;;;;;;1.20;0.77;;;;;;;25.43;42.43;101366.22;5015371;28;20417;-57
2022/10/19 00:38:53;;;;;;;2.90;1.05;;;;;;;25.44;42.48;101357.47;5032683;28;20075;-58
2022/10/19 00:41:22;;;;;;;1.48;0.80;;;;;;;25.42;42.68;101355.69;5032742;28;20021;-57
2022/10/19 00:44:02;;;;;;;1.15;0.82;;;;;;;25.40;42.80;101357.38;5032120;28;20077;-58
2022/10/19 00:46:37;;;;;;;1.70;0.90;;;;;;;25.40;42.68;101365.25;5032528;28;20032;-56
2022/10/19 00:49:09;;;;;;;;;;;;;;;25.41;42.55;101367.03;5033035;28;20032;-58
2022/10/19 00:51:40;;;;;;;2.30;1.13;;;;;;;25.43;42.33;101357.47;5032463;28;20262;-57
2022/10/19 00:54:09;;;;;;;1.63;1.15;;;;;;;25.43;42.64;101358.34;5032452;28;20033;-57
2022/10/19 00:56:39;;;;;;;2.47;1.05;;;;;;;25.39;42.68;101359.16;5032156;28;20034;-57
2022/10/19 00:59:08;;;;;;;4.18;0.90;;;;;;;25.39;42.84;101368.75;5032528;28;20022;-50
2022/10/19 01:01:36;;;;;;;1.58;0.90;;;;;;;25.40;42.74;101367.91;5015143;28;20033;-58
2022/10/19 01:04:05;;;;;;;2.70;1.08;;;;;;;25.38;42.56;101359.09;5032233;28;20033;-57
2022/10/19 01:06:35;;;;;;;1.25;0.90;;;;;;;25.36;42.81;101351.22;5032545;28;20112;-58
2022/10/19 01:09:04;;;;;;;3.40;0.90;;;;;;;25.36;42.80;101356.47;5014937;28;20021;-58
2022/10/19 01:11:51;;;;;;;1.77;1.02;;;;;;;25.37;42.67;101360.88;5032551;28;20026;-58
2022/10/19 01:14:37;;;;;;;1.83;0.98;;;;;;;25.33;42.94;101359.06;5036029;28;20381;-58
2022/10/19 01:17:28;;;;;;;3.42;1.23;;;;;;;25.36;42.65;101348.59;5036036;28;20037;-58
2022/10/19 01:20:08;;;;;;;2.17;1.00;;;;;;;25.38;42.68;101345.97;5036492;28;20101;-58
2022/10/19 01:23:14;;;;;;;2.53;1.10;;;;;;;25.33;42.71;101338.03;5034727;28;20037;-58
2022/10/19 01:26:20;;;;;;;1.48;0.95;;;;;;;25.35;42.76;101333.69;5031047;28;20094;-58
2022/10/19 01:29:08;;;;;;;2.05;0.80;;;;;;;25.34;42.63;101330.19;5029961;28;20034;-58
2022/10/19 01:32:00;;;;;;;1.30;0.70;;;;;;;25.32;42.55;101328.41;5035817;28;20032;-57
2022/10/19 01:34:48;;;;;;;3.70;1.20;;;;;;;25.28;43.00;101324.88;5036406;28;20040;-57
2022/10/19 01:37:25;;;;;;;1.33;1.00;;;;;;;25.33;42.63;101322.28;5018112;28;20497;-55
2022/10/19 01:40:05;;;;;;;0.82;0.70;;;;;;;25.27;42.85;101320.47;5035682;28;20173;-53
2022/10/19 01:42:37;;;;;;;4.57;1.30;;;;;;;25.29;42.78;101317.84;5035441;28;20108;-58
2022/10/19 01:45:14;;;;;;;1.77;1.00;;;;;;;25.28;42.71;101316.09;5035811;28;20037;-55
2022/10/19 01:47:50;;;;;;;1.42;1.05;;;;;;;25.17;42.85;101300.19;5035434;28;20027;-57
2022/10/19 01:50:39;;;;;;;3.53;1.55;;;;;;;25.19;42.90;101311.59;5035794;28;20078;-57
2022/10/19 01:53:09;;;;;;;1.85;0.98;;;;;;;25.29;42.69;101316.13;5017764;28;20041;-57
2022/10/19 01:55:41;;;;;;;0.77;0.65;;;;;;;25.26;42.98;101320.44;5035284;28;20022;-58
2022/10/19 01:58:13;;;;;;;2.90;1.00;;;;;;;25.24;43.12;101320.41;5035337;28;20393;-57
2022/10/19 02:00:44;;;;;;;1.98;0.80;;;;;;;25.27;42.62;101306.44;5033996;28;20036;-58
2022/10/19 02:03:14;;;;;;;5.43;1.08;;;;;;;25.27;42.68;101296.84;5017397;28;20053;-57
2022/10/19 02:05:43;;;;;;;1.27;0.80;;;;;;;25.28;42.67;101287.19;5034045;28;20036;-57
2022/10/19 02:08:15;;;;;;;0.98;0.90;;;;;;;25.27;42.73;101288.97;5017621;28;20116;-57
2022/10/19 02:10:45;;;;;;;0.93;0.82;;;;;;;25.25;42.86;101282.81;5035280;28;20064;-55
2022/10/19 02:13:15;;;;;;;1.60;0.77;;;;;;;25.29;42.52;101282.00;5034764;28;20030;-57
2022/10/19 02:15:45;;;;;;;3.13;0.90;;;;;;;25.27;42.62;101264.44;5035002;28;20055;-56
2022/10/19 02:18:16;;;;;;;2.08;1.02;;;;;;;25.24;42.75;101265.28;5034973;28;20068;-57
2022/10/19 02:20:45;;;;;;;1.40;0.80;;;;;;;25.25;42.45;101263.53;5034572;28;20499;-56
2022/10/19 02:23:14;;;;;;;2.05;0.95;;;;;;;25.24;42.77;101256.50;5033814;28;20029;-57
2022/10/19 02:25:43;;;;;;;2.72;1.00;;;;;;;25.24;42.56;101253.88;5034701;28;20030;-58
2022/10/19 02:28:11;;;;;;;3.50;1.17;;;;;;;25.20;42.97;101247.72;5034625;28;20061;-58
2022/10/19 02:30:41;;;;;;;1.13;0.88;;;;;;;25.18;42.83;101234.59;5034578;28;20382;-58
2022/10/19 02:33:11;;;;;;;1.70;0.93;;;;;;;25.25;42.74;101229.38;5034701;28;20116;-56
2022/10/19 02:35:39;;;;;;;2.78;1.13;;;;;;;25.27;42.62;101222.41;5033245;28;20025;-56
2022/10/19 02:38:10;;;;;;;2.28;1.15;;;;;;;25.25;42.58;101219.78;5034536;28;20363;-58
2022/10/19 02:40:43;;;;;;;3.33;1.00;;;;;;;25.20;42.83;101208.34;5016772;28;20026;-57
2022/10/19 02:43:14;;;;;;;2.60;1.23;;;;;;;25.20;42.87;101203.09;5016982;28;20042;-56
2022/10/19 02:45:50;;;;;;;1.48;0.95;;;;;;;25.17;42.79;101203.06;5034445;28;20064;-58
2022/10/19 02:48:22;;;;;;;3.72;1.08;;;;;;;25.17;42.82;101193.44;5016694;28;20036;-58
2022/10/19 02:50:51;;;;;;;2.05;1.05;;;;;;;25.16;42.77;101203.91;5016926;28;20029;-58
2022/10/19 02:53:19;;;;;;;2.80;0.93;;;;;;;25.20;42.82;101194.34;5034109;28;20025;-57
2022/10/19 02:55:49;;;;;;;1.48;0.77;;;;;;;25.16;42.90;101196.03;5034112;28;20041;-57
2022/10/19 02:58:18;;;;;;;3.45;1.15;;;;;;;25.21;42.73;101196.97;5016317;28;20490;-58
2022/10/19 03:00:46;;;;;;;2.60;1.15;;;;;;;25.20;42.86;101195.22;5034270;28;20044;-57
2022/10/19 03:03:14;;;;;;;2.17;1.23;;;;;;;25.20;42.81;101183.84;5033802;28;20117;-57
2022/10/19 03:05:43;;;;;;;4.53;1.23;;;;;;;25.16;42.75;101182.91;5033861;28;20637;-58
2022/10/19 03:08:12;;;;;;;1.30;0.90;;;;;;;25.14;43.17;101175.03;5034100;28;20083;-58
2022/10/19 03:10:40;;;;;;;1.88;1.10;;;;;;;25.17;43.09;101168.91;5033983;28;20022;-58
2022/10/19 03:13:08;;;;;;;2.25;1.08;;;;;;;25.15;42.84;101162.81;5033737;28;20025;-58
2022/10/19 03:15:36;;;;;;;1.80;0.95;;;;;;;25.13;43.03;101160.13;5033853;28;20075;-58
2022/10/19 03:18:05;;;;;;;5.93;1.20;;;;;;;25.11;43.19;101159.22;5033906;28;20521;-57
2022/10/19 03:20:34;;;;;;;2.08;1.08;;;;;;;25.15;42.79;101162.81;5033254;28;20046;-58
2022/10/19 03:23:02;;;;;;;2.20;1.08;;;;;;;25.14;42.78;101163.66;5033370;28;20116;-59
2022/10/19 03:25:31;;;;;;;3.60;0.93;;;;;;;25.14;42.80;101153.16;5033682;28;20033;-57
2022/10/19 03:27:59;;;;;;;1.35;0.85;;;;;;;25.16;42.98;101160.19;5033638;28;20079;-58
2022/10/19 03:30:28;;;;;;;1.67;0.95;;;;;;;25.16;42.84;101157.56;5033351;28;20025;-58
2022/10/19 03:32:56;;;;;;;2.13;0.73;;;;;;;25.16;42.68;101152.31;5033364;28;20032;-59
2022/10/19 03:35:24;;;;;;;1.30;0.70;;;;;;;25.16;42.70;101152.31;5033378;28;20033;-58
2022/10/19 03:37:53;;;;;;;2.53;1.00;;;;;;;25.13;42.78;101154.03;5016509;28;20060;-57
2022/10/19 03:40:21;;;;;;;1.77;1.30;;;;;;;25.18;42.46;101152.31;5033455;28;20083;-57
2022/10/19 03:42:50;;;;;;;2.70;1.33;;;;;;;25.14;42.74;101155.78;5033278;28;20030;-57
2022/10/19 03:45:19;;;;;;;2.10;1.00;;;;;;;25.10;42.91;101140.84;5033318;28;20033;-57
2022/10/19 03:47:50;;;;;;;3.10;0.95;;;;;;;25.12;42.85;101133.88;5033141;28;20037;-57
2022/10/19 03:50:19;;;;;;;3.75;0.90;;;;;;;25.07;43.03;101115.44;5033324;28;20100;-58
2022/10/19 03:52:48;;;;;;;2.28;0.90;;;;;;;25.11;42.82;101121.63;5033035;28;20109;-57
2022/10/19 03:55:18;;;;;;;2.40;0.95;;;;;;;25.00;42.74;101082.13;5032935;28;20030;-58
2022/10/19 03:57:45;;;;;;;2.45;0.93;;;;;;;25.13;42.81;101105.00;5033137;28;20033;-56
2022/10/19 04:00:14;;;;;;;2.53;1.00;;;;;;;24.99;42.76;101080.38;5033388;28;20107;-57
2022/10/19 04:02:43;;;;;;;1.08;0.80;;;;;;;25.10;42.94;101096.22;5032673;28;20037;-58
2022/10/19 04:05:11;;;;;;;2.20;1.00;;;;;;;25.12;42.95;101103.25;5033317;28;20374;-57
2022/10/19 04:07:39;;;;;;;2.55;0.88;;;;;;;25.09;43.21;101097.97;5033102;28;20025;-57
2022/10/19 04:10:07;;;;;;;1.95;0.90;;;;;;;25.11;42.85;101090.97;5033035;28;20418;-57
2022/10/19 04:12:35;;;;;;;1.98;1.08;;;;;;;25.11;43.20;101096.22;5032935;28;20026;-56
2022/10/19 04:15:04;;;;;;;1.23;0.90;;;;;;;25.08;42.67;101090.09;5032691;28;20104;-57
2022/10/19 04:17:32;;;;;;;3.50;0.90;;;;;;;25.09;42.92;101083.97;5032630;28;20029;-55
2022/10/19 04:20:00;;;;;;;1.73;1.00;;;;;;;25.07;43.20;101070.81;5032766;28;20021;-54
2022/10/19 04:22:29;;;;;;;2.25;0.90;;;;;;;25.09;43.08;101070.84;5013002;28;20098;-57
2022/10/19 04:24:57;;;;;;;3.63;1.20;;;;;;;25.11;42.87;101058.63;5013232;28;20026;-58
2022/10/19 04:27:26;;;;;;;4.13;1.10;;;;;;;25.03;42.84;101062.03;5012810;28;20038;-58
2022/10/19 04:29:54;;;;;;;2.63;0.98;;;;;;;25.06;42.80;101052.44;5013403;28;20022;-58
2022/10/19 04:32:23;;;;;;;1.77;0.70;;;;;;;25.07;43.02;101041.06;5013049;28;20109;-57
2022/10/19 04:34:51;;;;;;;3.00;1.10;;;;;;;25.08;42.66;101037.59;5012841;28;20108;-56
2022/10/19 04:37:20;;;;;;;1.58;0.90;;;;;;;25.05;42.99;101024.44;5012966;28;20100;-58
2022/10/19 04:39:48;;;;;;;1.02;0.70;;;;;;;25.02;42.75;101015.66;5013003;28;20033;-56
2022/10/19 04:42:17;;;;;;;1.63;0.80;;;;;;;25.03;43.27;101014.78;5012842;28;20112;-57
2022/10/19 04:44:45;;;;;;;2.45;0.80;;;;;;;25.06;42.92;100997.31;5012841;28;20026;-53
2022/10/19 04:47:14;;;;;;;1.77;0.80;;;;;;;25.03;42.95;100999.03;5014278;28;20483;-57
2022/10/19 04:49:42;;;;;;;1.30;0.90;;;;;;;25.08;42.76;100996.44;5016743;28;20026;-58
2022/10/19 04:52:11;;;;;;;1.92;1.10;;;;;;;25.07;42.89;100999.94;5016666;28;20363;-58
2022/10/19 04:54:39;;;;;;;2.22;0.90;;;;;;;25.06;42.79;100982.47;5015296;28;20057;-56
2022/10/19 04:57:08;;;;;;;2.15;0.95;;;;;;;25.11;43.09;100972.00;5016712;28;20030;-57
2022/10/19 04:59:36;;;;;;;3.38;1.38;;;;;;;25.02;42.89;100959.69;5015450;28;20390;-56
2022/10/19 05:02:05;;;;;;;1.88;0.80;;;;;;;25.06;42.94;100971.97;5016314;28;20112;-58
2022/10/19 05:04:33;;;;;;;1.83;1.00;;;;;;;25.10;42.94;100975.50;5016650;28;20022;-58
2022/10/19 05:07:02;;;;;;;3.40;1.05;;;;;;;25.05;43.22;100977.19;5016480;28;20034;-57
2022/10/19 05:09:31;;;;;;;3.50;1.38;;;;;;;25.08;43.03;100996.44;5016363;28;20455;-57
2022/10/19 05:11:59;;;;;;;2.13;1.00;;;;;;;25.09;42.60;100995.59;5016264;28;20045;-58
2022/10/19 05:14:28;;;;;;;1.75;1.00;;;;;;;25.05;42.84;100990.31;5016422;28;20033;-58
2022/10/19 05:16:57;;;;;;;3.08;1.00;;;;;;;25.10;42.76;100989.47;5016371;28;20096;-58
2022/10/19 05:19:25;;;;;;;0.85;0.80;;;;;;;25.07;42.99;100983.34;5016319;28;20052;-57
2022/10/19 05:21:54;;;;;;;1.83;0.88;;;;;;;25.09;42.86;100989.47;5028802;28;20406;-58
2022/10/19 05:24:22;;;;;;;2.15;0.90;;;;;;;24.99;42.76;100957.03;5035832;28;20112;-57
2022/10/19 05:26:51;;;;;;;2.00;0.80;;;;;;;25.10;42.62;100975.50;5035880;28;20351;-58
2022/10/19 05:29:19;;;;;;;2.10;1.00;;;;;;;25.09;43.01;100964.09;5035806;28;20029;-57
2022/10/19 05:31:48;;;;;;;2.80;1.08;;;;;;;25.09;42.86;100964.09;5035663;28;20029;-58
2022/10/19 05:34:16;;;;;;;3.53;1.00;;;;;;;25.07;43.04;100965.81;5035866;28;20033;-57
2022/10/19 05:36:45;;;;;;;1.55;1.05;;;;;;;25.06;42.96;100960.56;5035795;28;20069;-57
2022/10/19 05:39:16;;;;;;;1.92;0.90;;;;;;;25.09;42.96;100965.84;5035661;28;20372;-57
2022/10/19 05:41:45;;;;;;;1.92;0.93;;;;;;;25.07;43.09;100968.44;5035574;28;20065;-54
2022/10/19 05:44:18;;;;;;;1.60;0.93;;;;;;;25.06;42.93;100963.19;5035426;28;20026;-56
2022/10/19 05:46:47;;;;;;;1.40;0.95;;;;;;;25.08;42.68;100951.84;5018209;28;20033;-47
2022/10/19 05:49:17;;;;;;;2.65;1.10;;;;;;;25.09;42.91;100950.09;5035379;28;20029;-53
2022/10/19 05:51:46;;;;;;;4.10;0.95;;;;;;;25.05;43.01;100941.34;5035367;28;20028;-56
2022/10/19 05:54:15;;;;;;;1.45;0.95;;;;;;;25.08;43.07;100953.59;5017613;28;20124;-57
2022/10/19 05:56:43;;;;;;;1.50;0.80;;;;;;;25.09;42.92;100955.34;5035515;28;20544;-57
2022/10/19 05:59:16;;;;;;;1.33;0.77;;;;;;;25.08;42.88;100948.34;5033933;28;20035;-56
2022/10/19 06:01:45;;;;;;;2.33;1.10;;;;;;;25.07;42.82;100939.56;5034018;28;20112;-56
2022/10/19 06:04:14;;;;;;;1.60;1.10;;;;;;;25.09;43.07;100937.84;5035415;28;20024;-57
2022/10/19 06:06:42;;;;;;;1.90;1.05;;;;;;;25.03;43.15;100927.31;5035095;28;20053;-51
2022/10/19 06:09:11;;;;;;;1.48;0.93;;;;;;;24.99;42.96;100922.91;5034942;28;20060;-56
2022/10/19 06:11:41;;;;;;;1.98;0.90;;;;;;;25.01;42.92;100919.41;5035250;28;20029;-57
2022/10/19 06:14:14;;;;;;;1.42;0.88;;;;;;;25.01;42.89;100905.44;5034866;28;20103;-57
2022/10/19 06:16:44;;;;;;;4.07;1.00;;;;;;;25.03;42.90;100906.31;5035198;28;20478;-57
2022/10/19 06:19:13;;;;;;;3.50;1.05;;;;;;;25.02;43.21;100897.56;5034778;28;20049;-57
2022/10/19 06:21:43;;;;;;;1.17;0.70;;;;;;;25.05;43.01;100903.69;5033373;28;20118;-57
2022/10/19 06:24:11;;;;;;;1.67;0.90;;;;;;;25.02;42.86;100891.44;5034808;28;20458;-55
2022/10/19 06:26:40;;;;;;;3.63;1.58;;;;;;;25.03;42.88;100891.44;5034553;28;20564;-56
2022/10/19 06:29:09;;;;;;;4.75;0.98;;;;;;;25.01;42.89;100895.78;5034874;28;20037;-57
2022/10/19 06:31:38;;;;;;;2.63;1.08;;;;;;;25.02;42.76;100901.94;5034464;28;20037;-57
2022/10/19 06:34:06;;;;;;;3.92;1.10;;;;;;;25.01;42.85;100892.31;5034499;28;20431;-53
2022/10/19 06:36:35;;;;;;;4.20;0.98;;;;;;;25.01;43.12;100887.91;5034553;28;20493;-57
2022/10/19 06:39:04;;;;;;;1.85;0.82;;;;;;;25.03;42.73;100887.94;5034384;28;20441;-57
2022/10/19 06:41:33;;;;;;;1.17;0.75;;;;;;;25.01;42.91;100882.66;5034320;28;20033;-56
2022/10/19 06:44:02;;;;;;;2.75;0.98;;;;;;;25.02;43.13;100897.56;5034416;28;20116;-57
2022/10/19 06:46:31;;;;;;;4.70;1.17;;;;;;;24.99;42.89;100892.28;5034275;28;20022;-57
2022/10/19 06:49:01;;;;;;;1.63;0.90;;;;;;;24.99;43.21;100902.78;5034252;28;20036;-53
2022/10/19 06:51:32;;;;;;;1.77;1.00;;;;;;;24.96;42.93;100905.41;5034180;28;20519;-57
2022/10/19 06:54:01;;;;;;;2.47;0.80;;;;;;;24.99;42.91;100913.28;5034190;28;20029;-58
2022/10/19 06:56:29;;;;;;;1.13;0.75;;;;;;;25.01;43.17;100911.53;5033030;28;20078;-57
2022/10/19 06:58:59;;;;;;;2.13;0.93;;;;;;;25.05;42.84;100898.44;5032952;28;20430;-57
2022/10/19 07:01:27;;;;;;;2.22;1.17;;;;;;;25.00;43.11;100882.66;5034080;28;20053;-54
2022/10/19 07:03:56;;;;;;;1.50;1.10;;;;;;;25.04;42.89;100889.72;5034087;28;20033;-57
2022/10/19 07:06:26;;;;;;;2.60;1.42;;;;;;;25.05;42.78;100872.19;5033823;28;20073;-57
2022/10/19 07:08:54;;;;;;;4.18;1.33;;;;;;;25.02;43.05;100881.81;5034182;28;20022;-57
2022/10/19 07:11:23;;;;;;;3.75;1.00;;;;;;;25.03;43.00;100878.31;5033388;28;20036;-54
2022/10/19 07:13:52;;;;;;;3.78;1.00;;;;;;;25.03;42.91;100886.19;5033579;28;20029;-58
2022/10/19 07:16:21;;;;;;;1.60;0.88;;;;;;;25.01;43.01;100887.06;5033813;28;20029;-57
2022/10/19 07:18:50;;;;;;;5.05;1.40;;;;;;;25.05;43.14;100875.72;5033901;28;20026;-57
2022/10/19 07:21:21;;;;;;;2.60;0.95;;;;;;;25.01;43.21;100866.06;5033380;28;20045;-57
2022/10/19 07:23:50;;;;;;;3.58;1.20;;;;;;;25.01;42.91;100856.41;5033274;28;20526;-58
2022/10/19 07:26:22;;;;;;;2.15;1.00;;;;;;;25.08;42.65;100853.84;5033826;28;20415;-58
2022/10/19 07:28:50;;;;;;;4.07;1.40;;;;;;;25.08;42.77;100861.72;5033772;28;20101;-58
2022/10/19 07:31:21;;;;;;;2.13;1.23;;;;;;;25.08;43.10;100856.47;5033595;28;20092;-57
2022/10/19 07:33:55;;;;;;;1.20;0.85;;;;;;;25.05;42.75;100851.19;5033557;28;20025;-58
2022/10/19 07:36:23;;;;;;;2.25;1.20;;;;;;;25.12;42.71;100845.13;5033457;28;20025;-57
2022/10/19 07:38:52;;;;;;;2.40;1.10;;;;;;;25.13;43.00;100832.00;5033596;28;20060;-58
2022/10/19 07:41:22;;;;;;;2.25;1.10;;;;;;;25.16;42.52;100831.13;5033660;28;20033;-57
2022/10/19 07:43:51;;;;;;;1.90;0.95;;;;;;;25.22;42.62;100835.56;5032988;28;20038;-58
2022/10/19 07:46:22;;;;;;;3.33;1.15;;;;;;;25.23;42.45;100829.47;5033471;28;20056;-54
2022/10/19 07:48:50;;;;;;;2.65;1.00;;;;;;;25.25;42.23;100825.97;5033108;28;20083;-57
2022/10/19 07:51:20;;;;;;;3.55;1.10;;;;;;;25.24;42.37;100818.94;5032998;28;20029;-55
2022/10/19 07:53:48;;;;;;;2.17;1.00;;;;;;;25.24;42.40;100820.69;5033261;28;20489;-56
2022/10/19 07:56:19;;;;;;;1.42;0.68;;;;;;;25.30;42.43;100832.13;5033242;28;20034;-57
2022/10/19 07:58:49;;;;;;;7.05;1.52;;;;;;;25.30;42.24;100824.25;5033056;28;20391;-58
2022/10/19 08:01:19;;;;;;;3.28;1.30;;;;;;;25.33;42.24;100826.00;5032811;28;20476;-56
2022/10/19 08:03:48;;;;;;;1.75;1.08;;;;;;;25.39;42.28;100823.41;5032708;28;20430;-56
2022/10/19 08:06:18;;;;;;;3.90;1.08;;;;;;;25.43;42.37;100816.44;5015721;28;20398;-57
2022/10/19 08:08:47;;;;;;;2.50;0.90;;;;;;;25.41;42.51;100819.03;5032873;28;20022;-57
2022/10/19 08:11:28;;;;;;;3.35;1.20;;;;;;;25.41;42.30;100820.78;5032671;28;20028;-57
2022/10/19 08:13:58;;;;;;;4.28;1.40;;;;;;;25.44;42.46;100811.19;5031396;28;20029;-54
2022/10/19 08:16:45;;;;;;;3.17;1.27;;;;;;;25.48;42.63;100809.47;5032942;28;20034;-54
2022/10/19 08:19:15;;;;;;;5.88;1.20;;;;;;;25.51;42.80;100805.97;5033075;28;20108;-57
2022/10/19 08:21:45;;;;;;;4.15;1.80;;;;;;;25.45;42.97;100796.34;5031849;28;20042;-58
2022/10/19 08:24:15;;;;;;;4.40;1.40;;;;;;;25.45;42.73;100814.72;5032705;28;20025;-56
2022/10/19 08:26:44;;;;;;;3.97;1.42;;;;;;;25.51;43.08;100806.84;5032826;28;20116;-57
2022/10/19 08:29:18;;;;;;;3.80;1.20;;;;;;;25.48;43.06;100805.09;5033230;28;20474;-58
2022/10/19 08:31:48;;;;;;;8.48;2.00;;;;;;;25.52;43.12;100805.97;5032583;28;20034;-56
2022/10/19 08:34:17;;;;;;;3.83;1.20;;;;;;;25.58;43.22;100799.84;5032607;28;20041;-53
2022/10/19 08:36:44;;;;;;;4.65;1.63;;;;;;;25.57;43.24;100790.22;5032683;28;20033;-55
2022/10/19 08:39:13;;;;;;;3.80;1.63;;;;;;;25.56;43.05;100792.00;5032740;28;20462;-57
2022/10/19 08:41:41;;;;;;;5.30;2.13;;;;;;;25.58;43.44;100800.75;5032448;28;20033;-57
2022/10/19 08:44:48;;;;;;;5.13;1.92;;;;;;;25.52;43.27;100786.72;5015000;28;20065;-58
2022/10/19 08:47:38;;;;;;;5.63;1.80;;;;;;;25.58;43.18;100786.72;5025095;28;20037;-58
2022/10/19 08:50:29;;;;;;;4.25;1.60;;;;;;;25.62;43.41;100772.75;5029536;28;20042;-54
2022/10/19 08:53:04;;;;;;;4.93;1.30;;;;;;;25.64;43.49;100776.25;5015104;28;20104;-58
2022/10/19 08:55:43;;;;;;;2.53;1.13;;;;;;;25.63;43.35;100767.50;5031365;28;20025;-57
2022/10/19 08:58:27;;;;;;;5.43;1.90;;;;;;;25.70;43.29;100771.03;5032792;28;20038;-56
2022/10/19 09:01:00;;;;;;;5.97;2.27;;;;;;;25.75;43.67;100777.16;5032491;28;20056;-58
2022/10/19 09:03:55;;;;;;;5.55;2.00;;;;;;;25.74;43.39;100774.53;5014777;28;20798;-58
2022/10/19 09:06:57;;;;;;;5.32;1.50;;;;;;;25.71;43.71;100778.03;5026054;28;20033;-58
2022/10/19 09:09:26;;;;;;;4.75;2.28;;;;;;;25.71;43.99;100766.63;5025985;28;20041;-58
2022/10/19 09:11:58;;;;;;;4.47;1.92;;;;;;;25.75;43.95;100757.91;5031229;28;20025;-58
2022/10/19 09:14:51;;;;;;;6.63;1.80;;;;;;;25.74;43.98;100756.13;5014772;28;20470;-58
2022/10/19 09:17:20;;;;;;;8.88;2.05;;;;;;;25.71;44.04;100754.38;5026436;28;20502;-58
2022/10/19 09:19:49;;;;;;;8.18;2.60;;;;;;;25.75;44.20;100760.53;5032290;28;20022;-58
2022/10/19 09:22:21;;;;;;;6.28;1.88;;;;;;;25.71;44.25;100762.28;5031859;28;20049;-58
2022/10/19 09:24:52;;;;;;;4.95;1.90;;;;;;;25.66;44.17;100766.63;5032079;28;20060;-56
2022/10/19 09:27:23;;;;;;;8.30;2.28;;;;;;;25.69;44.52;100750.88;5014815;28;20448;-58
2022/10/19 09:29:55;;;;;;;4.70;1.83;;;;;;;25.75;44.39;100760.53;5032209;28;20021;-56
2022/10/19 09:32:28;;;;;;;10.38;2.45;;;;;;;25.74;44.25;100756.13;5032326;28;20091;-58
2022/10/19 09:35:01;;;;;;;9.30;2.38;;;;;;;25.76;44.49;100749.13;5018338;28;20029;-56
2022/10/19 09:37:30;;;;;;;5.70;2.45;;;;;;;25.75;44.54;100750.88;5036135;28;20021;-58
2022/10/19 09:39:59;;;;;;;6.80;2.38;;;;;;;25.81;44.58;100739.53;5034753;28;20025;-57
2022/10/19 09:42:31;;;;;;;11.80;2.53;;;;;;;25.82;44.83;100741.25;5018060;28;20548;-56
2022/10/19 09:45:00;;;;;;;7.30;2.33;;;;;;;25.83;44.92;100743.00;5035544;28;20025;-57
2022/10/19 09:47:40;;;;;;;6.07;2.70;;;;;;;25.81;45.30;100736.91;5035283;28;20033;-53
2022/10/19 09:50:18;;;;;;;6.47;2.15;;;;;;;25.82;44.99;100738.63;5035340;28;20475;-54
2022/10/19 09:52:52;;;;;;;5.82;3.28;;;;;;;25.86;45.17;100735.13;5035417;28;20544;-57
2022/10/19 09:55:40;;;;;;;10.13;3.33;;;;;;;25.86;45.25;100724.63;5033980;28;20036;-56
2022/10/19 09:58:19;;;;;;;7.38;3.00;;;;;;;25.87;45.19;100710.59;5017718;28;20033;-57
2022/10/19 10:00:50;;;;;;;11.95;2.60;;;;;;;25.92;45.13;100715.84;5035197;28;20029;-56
2022/10/19 10:03:39;;;;;;;8.77;2.55;;;;;;;25.92;45.10;100718.50;5035049;28;20470;-57
2022/10/19 10:06:12;;;;;;;8.73;2.70;;;;;;;25.94;45.69;100708.84;5017895;28;20034;-57
2022/10/19 10:08:47;;;;;;;11.27;2.55;;;;;;;25.97;45.44;100697.50;5035406;28;20026;-56
2022/10/19 10:11:16;;;;;;;;;;;;;;;25.99;45.49;100693.09;5017844;28;20100;-55
2022/10/19 10:13:51;;;;;;;9.48;2.75;;;;;;;26.01;45.24;100692.22;5017328;28;19913;-58
2022/10/19 10:16:23;;;;;;;9.38;2.58;;;;;;;26.02;45.26;100698.34;5017620;28;20410;-58
2022/10/19 10:18:59;;;;;;;12.15;3.13;;;;;;;26.00;45.04;100681.69;5034944;28;20025;-56
2022/10/19 10:21:33;;;;;;;13.98;3.10;;;;;;;26.00;45.39;100679.06;5034417;28;20042;-56
2022/10/19 10:24:04;;;;;;;10.55;2.95;;;;;;;26.02;45.27;100682.56;5034911;28;20080;-57
2022/10/19 10:26:38;;;;;;;9.27;2.78;;;;;;;26.04;45.21;100675.56;5034933;28;20032;-57
2022/10/19 10:29:18;;;;;;;9.88;3.30;;;;;;;25.98;45.28;100655.44;5017095;28;20083;-57
2022/10/19 10:32:07;;;;;;;9.95;2.45;;;;;;;26.03;45.64;100665.94;5034589;28;20053;-57
2022/10/19 10:34:55;;;;;;;9.57;2.78;;;;;;;26.03;45.63;100674.72;5027681;28;20045;-55
2022/10/19 10:37:32;;;;;;;11.35;3.03;;;;;;;26.01;45.54;100665.06;5034535;28;20036;-57
2022/10/19 10:40:01;;;;;;;9.65;2.67;;;;;;;26.07;45.46;100649.28;5034809;28;20029;-58
2022/10/19 10:42:36;;;;;;;8.90;2.83;;;;;;;26.04;45.28;100646.66;5034065;28;20385;-55
2022/10/19 10:45:04;;;;;;;4.85;2.45;;;;;;;26.09;45.52;100656.28;5033967;28;20057;-56
2022/10/19 10:47:32;;;;;;;6.72;3.00;;;;;;;26.08;45.26;100659.78;5034585;28;20398;-58
2022/10/19 10:50:04;;;;;;;9.55;3.50;;;;;;;26.09;45.44;100661.53;5034204;28;20364;-57
2022/10/19 10:52:35;;;;;;;8.80;2.92;;;;;;;26.03;45.62;100658.94;5034166;28;20025;-58
2022/10/19 10:55:22;;;;;;;7.80;2.80;;;;;;;25.98;45.47;100651.94;5034063;28;20470;-56
2022/10/19 10:57:54;;;;;;;7.20;3.10;;;;;;;26.13;45.51;100674.72;5034157;28;20054;-57
2022/10/19 11:00:23;;;;;;;6.80;2.95;;;;;;;26.10;45.50;100678.22;5016575;28;20409;-57
2022/10/19 11:03:16;;;;;;;6.78;2.47;;;;;;;26.11;45.30;100679.06;5034004;28;20021;-54
2022/10/19 11:05:54;;;;;;;8.15;3.15;;;;;;;26.12;45.64;100665.97;5034037;28;20034;-57
2022/10/19 11:08:42;;;;;;;8.15;3.15;;;;;;;26.16;45.30;100675.59;5034017;28;20026;-58
2022/10/19 11:11:15;;;;;;;10.25;2.97;;;;;;;26.15;45.47;100675.59;5029899;28;20471;-56
2022/10/19 11:13:55;;;;;;;9.48;3.05;;;;;;;26.15;45.62;100658.06;5032772;28;20022;-58
2022/10/19 11:16:43;;;;;;;8.98;3.05;;;;;;;26.16;45.81;100656.31;5033730;28;20065;-58
2022/10/19 11:19:34;;;;;;;11.35;3.17;;;;;;;26.18;45.61;100644.91;4999911;28;20029;-58
2022/10/19 11:22:31;;;;;;;9.02;3.00;;;;;;;26.19;45.59;100658.97;5030421;28;20483;-58
2022/10/19 11:25:24;;;;;;;10.00;3.13;;;;;;;26.21;45.34;100644.91;5024478;28;20351;-58
2022/10/19 11:28:01;;;;;;;13.23;3.25;;;;;;;26.24;45.25;100647.56;5026515;28;20112;-58
2022/10/19 11:30:30;;;;;;;11.48;3.08;;;;;;;26.26;45.48;100654.56;5033527;28;20048;-58
2022/10/19 11:33:17;;;;;;;13.38;3.92;;;;;;;26.23;45.55;100647.53;5032266;28;20022;-58
2022/10/19 11:35:49;;;;;;;10.05;3.30;;;;;;;26.30;45.48;100649.28;5033411;28;20030;-58
2022/10/19 11:38:44;;;;;;;15.77;3.88;;;;;;;26.30;45.72;100653.69;5033718;28;20075;-58
2022/10/19 11:41:36;;;;;;;12.70;2.90;;;;;;;26.29;45.37;100657.19;5024426;28;20181;-57
2022/10/19 11:44:26;;;;;;;9.05;2.75;;;;;;;26.23;45.54;100653.69;5015773;28;20036;-57
2022/10/19 11:47:18;;;;;;;11.48;3.13;;;;;;;26.29;45.47;100659.81;5033210;28;20036;-58
2022/10/19 11:49:55;;;;;;;11.32;3.10;;;;;;;26.34;45.39;100648.41;5030432;28;20041;-56